Time;durP1;ratioP1;P1;durP2;ratioP2;P2;SDS_P1;SDS_P2;PMS_P1;PMS_P2;Temp;Humidity;BMP_temperature;BMP_pressure;BME280_temperature;BME280_humidity;BME280_pressure;Samples;Min_cycle;Max_cycle;Signal;HPM_P1;HPM_P2
2023/11/10 00:00:00;;;;;;;9.07;5.30;;;7.70;99.90;;;;;;5073578;28;20087;-84
2023/11/10 00:02:27;;;;;;;9.93;5.78;;;7.10;99.90;;;;;;5057245;28;20045;-84
2023/11/10 00:04:53;;;;;;;10.23;5.82;;;7.20;99.90;;;;;;5112536;28;20061;-83
2023/11/10 00:07:20;;;;;;;10.50;5.90;;;7.10;99.90;;;;;;5064187;28;20094;-83
2023/11/10 00:09:47;;;;;;;10.02;6.00;;;6.90;99.90;;;;;;5070116;28;20045;-84
2023/11/10 00:12:14;;;;;;;11.85;6.20;;;7.70;99.90;;;;;;5088386;28;20070;-84
2023/11/10 00:14:41;;;;;;;12.20;6.03;;;6.90;99.90;;;;;;5102077;28;20045;-83
2023/11/10 00:17:09;;;;;;;10.20;6.35;;;6.80;99.90;;;;;;5069821;28;20507;-83
2023/11/10 00:19:37;;;;;;;9.80;6.47;;;7.50;99.90;;;;;;5070207;28;20041;-84
2023/11/10 00:22:06;;;;;;;12.40;6.63;;;6.80;99.90;;;;;;5086777;28;20064;-84
2023/11/10 00:24:35;;;;;;;13.88;6.40;;;6.90;99.90;;;;;;5069604;28;20036;-84
2023/11/10 00:27:02;;;;;;;9.50;6.45;;;6.80;99.90;;;;;;5069873;28;20128;-84
2023/11/10 00:29:29;;;;;;;13.32;6.78;;;6.80;99.90;;;;;;5069329;28;20124;-84
2023/11/10 00:31:56;;;;;;;10.52;6.20;;;7.00;99.90;;;;;;5069809;28;20151;-84
2023/11/10 00:34:22;;;;;;;10.85;6.53;;;6.80;99.90;;;;;;5119675;28;20075;-84
2023/11/10 00:36:49;;;;;;;10.48;6.28;;;6.90;99.90;;;;;;5069383;28;20051;-84
2023/11/10 00:39:17;;;;;;;10.00;6.18;;;7.20;99.90;;;;;;5120045;28;20071;-83
2023/11/10 00:41:46;;;;;;;13.20;6.60;;;6.80;99.90;;;;;;5103181;28;20056;-84
2023/11/10 00:44:13;;;;;;;10.80;6.25;;;7.40;99.90;;;;;;5069593;28;20506;-84
2023/11/10 00:46:40;;;;;;;9.95;6.40;;;7.10;99.90;;;;;;5056521;28;20029;-84
2023/11/10 00:49:09;;;;;;;13.85;6.60;;;6.90;99.90;;;;;;5069352;28;20141;-84
2023/11/10 00:51:36;;;;;;;10.65;6.35;;;6.90;99.90;;;;;;5069376;28;20052;-84
2023/11/10 00:54:04;;;;;;;10.45;6.40;;;6.90;99.90;;;;;;5084638;28;20041;-84
2023/11/10 00:56:30;;;;;;;10.75;6.25;;;6.90;99.90;;;;;;5065833;28;20619;-84
2023/11/10 00:58:58;;;;;;;12.93;6.57;;;7.00;99.90;;;;;;5097978;28;20131;-83
2023/11/10 01:01:26;;;;;;;9.60;6.30;;;7.60;99.90;;;;;;5069725;28;20045;-84
2023/11/10 01:03:53;;;;;;;12.05;6.60;;;7.60;99.90;;;;;;5069260;28;20053;-84
2023/11/10 01:06:20;;;;;;;8.13;5.82;;;7.10;99.90;;;;;;5069037;28;20489;-84
2023/11/10 01:08:46;;;;;;;9.50;5.63;;;7.40;99.90;;;;;;5065627;28;20816;-84
2023/11/10 01:11:13;;;;;;;10.82;6.25;;;7.10;99.90;;;;;;5091146;28;20116;-84
2023/11/10 01:13:40;;;;;;;9.05;5.90;;;7.10;99.90;;;;;;5069328;28;20553;-84
2023/11/10 01:16:07;;;;;;;12.88;6.13;;;7.10;99.90;;;;;;5069231;28;20037;-84
2023/11/10 01:18:34;;;;;;;9.63;5.68;;;7.20;99.90;;;;;;5060146;28;20041;-84
2023/11/10 01:21:01;;;;;;;9.00;5.13;;;7.20;99.90;;;;;;5068181;28;20033;-84
2023/11/10 01:23:27;;;;;;;9.65;5.68;;;7.20;99.90;;;;;;5069584;28;20116;-84
2023/11/10 01:25:54;;;;;;;9.80;5.40;;;7.60;99.90;;;;;;5102317;28;20124;-84
2023/11/10 01:28:21;;;;;;;9.23;5.35;;;7.20;99.90;;;;;;5119368;28;20080;-84
2023/11/10 01:30:47;;;;;;;7.40;4.75;;;7.90;99.90;;;;;;5089178;28;20063;-84
2023/11/10 01:33:14;;;;;;;9.18;5.13;;;7.30;99.90;;;;;;5056164;28;20037;-84
2023/11/10 01:35:40;;;;;;;8.75;4.95;;;7.30;99.90;;;;;;5068873;28;20037;-84
2023/11/10 01:38:08;;;;;;;7.13;4.38;;;7.70;99.90;;;;;;5056325;28;20083;-83
2023/11/10 01:40:41;;;;;;;7.18;4.32;;;7.30;99.90;;;;;;5120249;28;20041;-84
2023/11/10 01:43:15;;;;;;;6.88;4.80;;;7.30;99.90;;;;;;5068563;28;20048;-84
2023/11/10 01:45:45;;;;;;;7.93;4.22;;;7.30;99.90;;;;;;5078089;28;20049;-83
2023/11/10 01:48:13;;;;;;;7.15;4.20;;;7.30;99.90;;;;;;5105129;28;20033;-83
2023/11/10 01:50:43;;;;;;;8.13;4.15;;;7.40;99.90;;;;;;5059323;28;20124;-84
2023/11/10 01:53:11;;;;;;;6.78;4.15;;;7.40;99.90;;;;;;5065108;28;20551;-84
2023/11/10 01:55:38;;;;;;;6.60;3.85;;;7.30;99.90;;;;;;5072167;28;20119;-84
2023/11/10 01:58:06;;;;;;;6.68;3.92;;;7.30;99.90;;;;;;5063998;28;20045;-84
2023/11/10 02:00:33;;;;;;;6.13;3.22;;;7.30;99.90;;;;;;5071040;28;20137;-84
2023/11/10 02:03:04;;;;;;;7.45;3.53;;;7.30;99.90;;;;;;5063032;28;20143;-84
2023/11/10 02:05:31;;;;;;;7.93;3.45;;;7.70;99.90;;;;;;5081526;28;20053;-84
2023/11/10 02:07:58;;;;;;;7.82;3.50;;;7.30;99.90;;;;;;5105651;28;20086;-84
2023/11/10 02:10:25;;;;;;;5.97;3.28;;;7.40;99.90;;;;;;5072049;28;20714;-84
2023/11/10 02:12:53;;;;;;;6.95;3.17;;;7.30;99.90;;;;;;5061413;28;20037;-84
2023/11/10 02:15:21;;;;;;;6.57;3.05;;;7.40;99.90;;;;;;5083410;28;20038;-85
2023/11/10 02:17:48;;;;;;;8.40;3.35;;;7.40;99.90;;;;;;5093512;28;20393;-84
2023/11/10 02:20:15;;;;;;;4.90;3.20;;;7.60;99.90;;;;;;5068798;28;20037;-84
2023/11/10 02:22:50;;;;;;;5.47;2.60;;;7.40;99.90;;;;;;5095113;28;20091;-84
2023/11/10 02:25:18;;;;;;;5.70;2.88;;;7.40;99.90;;;;;;5076792;28;20045;-84
2023/11/10 02:27:45;;;;;;;6.35;3.60;;;7.40;99.90;;;;;;5069469;28;20074;-84
2023/11/10 02:30:12;;;;;;;5.07;2.70;;;7.40;99.90;;;;;;5064412;28;20123;-84
2023/11/10 02:32:42;;;;;;;6.38;2.72;;;7.40;99.90;;;;;;5060874;28;20068;-84
2023/11/10 02:35:09;;;;;;;5.72;2.78;;;7.40;99.90;;;;;;5069646;28;20041;-84
2023/11/10 02:37:37;;;;;;;6.22;3.10;;;7.60;99.90;;;;;;5076354;28;20490;-84
2023/11/10 02:40:07;;;;;;;7.25;2.83;;;7.40;99.90;;;;;;5071686;28;20037;-84
2023/11/10 02:42:36;;;;;;;8.55;3.00;;;7.40;99.90;;;;;;5108862;28;20069;-84
2023/11/10 02:45:03;;;;;;;5.15;2.70;;;7.40;99.90;;;;;;5058800;28;20037;-84
2023/11/10 02:47:30;;;;;;;5.10;2.50;;;7.40;99.90;;;;;;5060800;28;20033;-84
2023/11/10 02:49:57;;;;;;;6.72;2.55;;;7.40;99.90;;;;;;5071702;28;20037;-85
2023/11/10 02:52:24;;;;;;;4.07;2.35;;;7.40;99.90;;;;;;5107810;28;20091;-84
2023/11/10 02:54:51;;;;;;;6.13;2.80;;;7.40;99.90;;;;;;5109912;28;20532;-84
2023/11/10 02:57:17;;;;;;;5.43;2.45;;;7.40;99.90;;;;;;5115779;28;20071;-84
2023/11/10 02:59:44;;;;;;;5.07;2.50;;;8.20;99.90;;;;;;5075806;28;20037;-84
2023/11/10 03:02:11;;;;;;;4.72;2.65;;;7.40;99.90;;;;;;5084056;28;20063;-84
2023/11/10 03:04:39;;;;;;;3.63;2.20;;;7.40;99.90;;;;;;5067526;28;20533;-83
2023/11/10 03:07:06;;;;;;;6.53;2.53;;;7.40;99.90;;;;;;5099898;28;20041;-84
2023/11/10 03:09:34;;;;;;;6.50;2.75;;;7.70;99.90;;;;;;5071184;28;20036;-84
2023/11/10 03:12:01;;;;;;;6.53;2.50;;;7.40;99.90;;;;;;5107893;28;20505;-84
2023/11/10 03:14:27;;;;;;;5.60;2.30;;;7.40;99.90;;;;;;5071068;28;20033;-84
2023/11/10 03:16:54;;;;;;;3.95;2.40;;;7.40;99.90;;;;;;5066957;28;20041;-84
2023/11/10 03:19:21;;;;;;;4.82;2.38;;;8.00;99.90;;;;;;5070149;28;20650;-84
2023/11/10 03:21:48;;;;;;;5.47;2.72;;;8.10;99.90;;;;;;5061346;28;20044;-84
2023/11/10 03:24:14;;;;;;;4.65;2.40;;;7.30;99.90;;;;;;5071261;28;20048;-84
2023/11/10 03:26:42;;;;;;;4.65;2.47;;;7.40;99.90;;;;;;5070638;28;20060;-84
2023/11/10 03:29:09;;;;;;;5.18;2.45;;;7.30;99.90;;;;;;5070744;28;20033;-84
2023/11/10 03:31:38;;;;;;;5.32;2.50;;;7.80;99.90;;;;;;5068709;28;20400;-84
2023/11/10 03:34:04;;;;;;;5.80;2.53;;;7.30;99.90;;;;;;5059838;28;20123;-84
2023/11/10 03:36:31;;;;;;;6.78;2.30;;;7.30;99.90;;;;;;5070532;28;20129;-84
2023/11/10 03:38:57;;;;;;;7.78;2.63;;;7.20;99.90;;;;;;5094299;28;20041;-83
2023/11/10 03:41:24;;;;;;;3.60;2.20;;;7.20;99.90;;;;;;5054029;28;20037;-84
2023/11/10 03:43:51;;;;;;;4.75;2.55;;;7.20;99.90;;;;;;5070295;28;20090;-84
2023/11/10 03:46:17;;;;;;;4.95;2.40;;;7.60;99.90;;;;;;5107106;28;20079;-84
2023/11/10 03:48:44;;;;;;;5.18;2.70;;;7.20;99.90;;;;;;5092973;28;20064;-84
2023/11/10 03:51:11;;;;;;;7.55;2.60;;;7.70;99.90;;;;;;5080328;28;20033;-84
2023/11/10 03:53:41;;;;;;;6.13;2.45;;;7.70;99.90;;;;;;5069972;28;20094;-84
2023/11/10 03:56:08;;;;;;;10.15;2.83;;;7.30;99.90;;;;;;5070308;28;20036;-84
2023/11/10 03:58:35;;;;;;;5.05;2.53;;;7.30;99.90;;;;;;5069847;28;20051;-84
2023/11/10 04:01:02;;;;;;;7.43;2.60;;;7.70;99.90;;;;;;5050514;28;20041;-84
2023/11/10 04:03:28;;;;;;;5.00;2.45;;;7.20;99.90;;;;;;5066027;28;20398;-84
2023/11/10 04:05:55;;;;;;;5.43;2.47;;;7.30;99.90;;;;;;5070128;28;20110;-84
2023/11/10 04:08:22;;;;;;;5.90;2.47;;;7.60;99.90;;;;;;5056998;28;20116;-84
2023/11/10 04:10:48;;;;;;;6.03;2.67;;;7.30;99.90;;;;;;5066429;28;20461;-84
2023/11/10 04:13:15;;;;;;;4.85;2.70;;;7.70;99.90;;;;;;5103233;28;20098;-84
2023/11/10 04:15:41;;;;;;;4.75;2.60;;;7.30;99.90;;;;;;5069902;28;20040;-84
2023/11/10 04:18:08;;;;;;;4.13;2.45;;;7.40;99.90;;;;;;5076717;28;20554;-84
2023/11/10 04:20:35;;;;;;;3.70;2.38;;;7.50;99.90;;;;;;5115187;28;20060;-83
2023/11/10 04:23:02;;;;;;;8.23;2.55;;;7.90;99.90;;;;;;5053326;28;20038;-84
2023/11/10 04:25:29;;;;;;;3.92;2.38;;;7.40;99.90;;;;;;5065322;28;20493;-85
2023/11/10 04:27:56;;;;;;;3.92;2.10;;;7.40;99.90;;;;;;5066474;28;20133;-83
2023/11/10 04:30:23;;;;;;;5.78;2.20;;;7.40;99.90;;;;;;5102650;28;20044;-84
2023/11/10 04:32:50;;;;;;;3.45;2.05;;;7.40;99.90;;;;;;5057824;28;20033;-84
2023/11/10 04:35:16;;;;;;;5.03;2.28;;;7.40;99.90;;;;;;5086590;28;20079;-88
2023/11/10 04:37:43;;;;;;;6.80;2.35;;;7.80;99.90;;;;;;5067966;28;20458;-88
2023/11/10 04:40:11;;;;;;;5.75;2.50;;;7.40;99.90;;;;;;5070561;28;20056;-88
2023/11/10 04:42:39;;;;;;;6.65;2.60;;;7.40;99.90;;;;;;5057721;28;20044;-87
2023/11/10 04:45:07;;;;;;;4.15;2.25;;;7.70;99.90;;;;;;5064335;28;20043;-88
2023/11/10 04:47:34;;;;;;;6.15;2.50;;;7.40;99.90;;;;;;5068933;28;20030;-87
2023/11/10 04:50:01;;;;;;;4.75;2.50;;;7.40;99.90;;;;;;5120878;28;20810;-88
2023/11/10 04:52:29;;;;;;;6.25;2.35;;;7.40;99.90;;;;;;5104553;28;20040;-89
2023/11/10 04:54:55;;;;;;;7.13;2.50;;;8.10;99.90;;;;;;5071771;28;20041;-88
2023/11/10 04:57:26;;;;;;;5.43;2.20;;;7.50;99.90;;;;;;5058060;28;20040;-88
2023/11/10 04:59:54;;;;;;;4.40;2.33;;;7.40;99.90;;;;;;5071485;28;20469;-88
2023/11/10 05:02:22;;;;;;;5.05;2.45;;;7.40;99.90;;;;;;5058050;28;20037;-89
2023/11/10 05:04:50;;;;;;;7.60;2.67;;;7.40;99.90;;;;;;5121076;28;20497;-89
2023/11/10 05:07:16;;;;;;;4.80;2.28;;;7.70;99.90;;;;;;5070869;28;20057;-88
2023/11/10 05:09:44;;;;;;;6.55;2.53;;;7.70;99.90;;;;;;5071660;28;20485;-88
2023/11/10 05:12:10;;;;;;;6.45;2.35;;;8.00;99.90;;;;;;5057625;28;20509;-88
2023/11/10 05:14:39;;;;;;;4.93;2.42;;;7.30;99.90;;;;;;5110542;28;20044;-88
2023/11/10 05:17:06;;;;;;;5.75;2.50;;;7.40;99.90;;;;;;5073928;28;20045;-88
2023/11/10 05:19:33;;;;;;;4.75;2.20;;;7.30;99.90;;;;;;5093247;28;20086;-88
2023/11/10 05:22:00;;;;;;;5.75;2.47;;;7.30;99.90;;;;;;5125009;28;20041;-88
2023/11/10 05:24:26;;;;;;;6.07;2.35;;;7.20;99.90;;;;;;5074571;28;20041;-88
2023/11/10 05:26:56;;;;;;;8.05;2.67;;;7.40;99.90;;;;;;5095853;28;20041;-88
2023/11/10 05:29:25;;;;;;;5.55;2.42;;;7.20;99.90;;;;;;5073858;28;20034;-88
2023/11/10 05:31:54;;;;;;;3.95;2.03;;;7.20;99.90;;;;;;5081341;28;20044;-88
2023/11/10 05:34:21;;;;;;;6.55;2.42;;;7.20;99.90;;;;;;5087499;28;20108;-88
2023/11/10 05:36:47;;;;;;;6.15;2.50;;;7.20;99.90;;;;;;5074256;28;20140;-88
2023/11/10 05:39:14;;;;;;;5.95;2.53;;;7.10;99.90;;;;;;5087811;28;20120;-88
2023/11/10 05:41:44;;;;;;;7.68;2.40;;;7.10;99.90;;;;;;5087240;28;20452;-88
2023/11/10 05:44:11;;;;;;;5.40;2.33;;;7.20;99.90;;;;;;5073057;28;20052;-87
2023/11/10 05:46:38;;;;;;;4.80;2.38;;;7.60;99.90;;;;;;5069627;28;20136;-88
2023/11/10 05:49:08;;;;;;;9.05;3.00;;;7.60;99.90;;;;;;5078996;28;20130;-88
2023/11/10 05:51:35;;;;;;;6.47;2.40;;;7.90;99.90;;;;;;5090743;28;20078;-90
2023/11/10 05:54:02;;;;;;;9.45;2.72;;;7.50;99.90;;;;;;5070866;28;20038;-89
2023/11/10 05:56:28;;;;;;;6.15;2.90;;;7.20;99.90;;;;;;5096262;28;20036;-88
2023/11/10 05:58:55;;;;;;;6.85;3.40;;;7.80;99.90;;;;;;5074245;28;20043;-88
2023/11/10 06:01:24;;;;;;;4.82;2.63;;;7.60;99.90;;;;;;5104841;28;20040;-89
2023/11/10 06:03:51;;;;;;;5.45;2.38;;;7.70;99.90;;;;;;5114908;28;20057;-88
2023/11/10 06:06:18;;;;;;;4.97;2.60;;;7.60;99.90;;;;;;5070243;28;20051;-89
2023/11/10 06:08:44;;;;;;;6.32;2.58;;;7.20;99.90;;;;;;5064616;28;20490;-90
2023/11/10 06:11:22;;;;;;;7.47;2.67;;;7.30;99.90;;;;;;5086079;28;20485;-88
2023/11/10 06:13:50;;;;;;;6.65;2.78;;;7.30;99.90;;;;;;5073783;28;20116;-89
2023/11/10 06:16:17;;;;;;;7.78;3.13;;;7.20;99.90;;;;;;5118644;28;20049;-89
2023/11/10 06:18:44;;;;;;;4.60;2.50;;;7.60;99.90;;;;;;5078703;28;20123;-91
2023/11/10 06:21:11;;;;;;;5.80;2.90;;;7.20;99.90;;;;;;5104820;28;20045;-88
2023/11/10 06:23:38;;;;;;;10.25;3.08;;;7.20;99.90;;;;;;5112373;28;20049;-89
2023/11/10 06:26:06;;;;;;;6.35;2.88;;;7.10;99.90;;;;;;5070620;28;20517;-89
2023/11/10 06:28:35;;;;;;;6.18;2.92;;;7.10;99.90;;;;;;5070264;28;20044;-89
2023/11/10 06:31:03;;;;;;;5.20;2.60;;;7.10;99.90;;;;;;5106301;28;20170;-89
2023/11/10 06:33:30;;;;;;;10.13;3.35;;;7.10;99.90;;;;;;5055728;28;20041;-88
2023/11/10 06:35:58;;;;;;;7.43;2.83;;;7.00;99.90;;;;;;5064721;28;20416;-88
2023/11/10 06:38:26;;;;;;;7.18;2.80;;;7.10;99.90;;;;;;5054946;28;20041;-88
2023/11/10 06:40:53;;;;;;;8.80;3.20;;;7.00;99.90;;;;;;5078260;28;20047;-88
2023/11/10 06:43:20;;;;;;;6.32;2.95;;;7.00;99.90;;;;;;5091401;28;20124;-88
2023/11/10 06:45:47;;;;;;;5.10;3.00;;;7.70;99.90;;;;;;5107539;28;20124;-88
2023/11/10 06:48:15;;;;;;;5.65;3.00;;;6.90;99.90;;;;;;5060145;28;20409;-89
2023/11/10 06:50:42;;;;;;;4.45;2.70;;;7.00;99.90;;;;;;5108703;28;20040;-88
2023/11/10 06:53:10;;;;;;;6.05;2.80;;;7.10;99.90;;;;;;5072714;28;20448;-88
2023/11/10 06:55:39;;;;;;;7.75;3.10;;;7.30;99.90;;;;;;5087504;28;20041;-89
2023/11/10 06:58:07;;;;;;;9.63;3.22;;;6.70;99.90;;;;;;5068943;28;20136;-88
2023/11/10 07:00:33;;;;;;;8.50;3.13;;;6.70;99.90;;;;;;5052638;28;20045;-88
2023/11/10 07:03:00;;;;;;;6.43;2.90;;;7.60;99.90;;;;;;5082512;28;20037;-88
2023/11/10 07:05:27;;;;;;;6.50;3.00;;;6.90;99.90;;;;;;5071679;28;20135;-89
2023/11/10 07:07:54;;;;;;;8.10;3.13;;;6.90;99.90;;;;;;5105386;28;20072;-88
2023/11/10 07:10:21;;;;;;;9.13;3.38;;;6.70;99.90;;;;;;5063063;28;20041;-88
2023/11/10 07:12:48;;;;;;;6.68;3.22;;;6.80;99.90;;;;;;5072111;28;20043;-89
2023/11/10 07:15:15;;;;;;;9.32;3.47;;;6.60;99.90;;;;;;5120018;28;20037;-88
2023/11/10 07:17:41;;;;;;;8.50;3.78;;;6.90;99.90;;;;;;5066967;28;20533;-89
2023/11/10 07:20:10;;;;;;;5.97;3.15;;;6.80;99.90;;;;;;5072549;28;20037;-89
2023/11/10 07:22:37;;;;;;;6.70;3.20;;;6.60;99.90;;;;;;5069205;28;20045;-88
2023/11/10 07:25:06;;;;;;;5.20;3.15;;;6.80;99.90;;;;;;5072201;28;20086;-89
2023/11/10 07:27:33;;;;;;;5.75;3.00;;;6.60;99.90;;;;;;5059671;28;20034;-90
2023/11/10 07:30:00;;;;;;;8.07;3.33;;;6.60;99.90;;;;;;5063927;28;20107;-89
2023/11/10 07:32:30;;;;;;;11.40;3.22;;;7.10;99.90;;;;;;5070664;28;20083;-89
2023/11/10 07:34:57;;;;;;;4.70;3.05;;;6.70;99.90;;;;;;5081723;28;20033;-89
2023/11/10 07:37:23;;;;;;;5.65;3.17;;;7.70;99.90;;;;;;5094938;28;20094;-89
2023/11/10 07:39:50;;;;;;;7.13;3.00;;;7.30;99.90;;;;;;5067493;28;20045;-88
2023/11/10 07:42:17;;;;;;;9.73;3.75;;;6.90;99.90;;;;;;5085244;28;20045;-89
2023/11/10 07:44:44;;;;;;;6.22;3.50;;;6.80;99.90;;;;;;5081833;28;20102;-89
2023/11/10 07:47:10;;;;;;;12.02;3.22;;;6.80;99.90;;;;;;5091267;28;20124;-88
2023/11/10 07:49:37;;;;;;;7.15;3.20;;;6.80;99.90;;;;;;5087692;28;20037;-89
2023/11/10 07:52:04;;;;;;;9.07;3.33;;;6.80;99.90;;;;;;5058309;28;20040;-89
2023/11/10 07:54:32;;;;;;;7.93;3.47;;;6.80;99.90;;;;;;5120770;28;20040;-88
2023/11/10 07:56:59;;;;;;;7.10;3.42;;;7.00;99.90;;;;;;5070609;28;20424;-88
2023/11/10 07:59:26;;;;;;;10.27;3.60;;;7.40;99.90;;;;;;5096879;28;20047;-88
2023/11/10 08:01:53;;;;;;;14.32;5.13;;;7.00;99.90;;;;;;5052781;28;20105;-88
2023/11/10 08:04:20;;;;;;;8.98;4.13;;;6.80;99.90;;;;;;5077338;28;20057;-88
2023/11/10 08:06:48;;;;;;;6.40;3.70;;;6.80;99.90;;;;;;5085574;28;20046;-88
2023/11/10 08:09:15;;;;;;;8.98;3.90;;;6.90;99.90;;;;;;5087430;28;20095;-89
2023/11/10 08:11:43;;;;;;;8.27;3.42;;;6.90;99.90;;;;;;5066361;28;20040;-89
2023/11/10 08:14:09;;;;;;;6.97;3.80;;;7.10;99.90;;;;;;5071322;28;20506;-87
2023/11/10 08:16:36;;;;;;;7.20;3.65;;;6.90;99.90;;;;;;5070589;28;20049;-89
2023/11/10 08:19:03;;;;;;;6.45;3.88;;;6.90;99.90;;;;;;5057662;28;20045;-88
2023/11/10 08:21:30;;;;;;;11.07;4.07;;;7.00;99.90;;;;;;5074483;28;20044;-88
2023/11/10 08:23:57;;;;;;;13.57;4.10;;;7.00;99.90;;;;;;5070545;28;20120;-89
2023/11/10 08:26:24;;;;;;;9.43;3.90;;;7.10;99.90;;;;;;5082151;28;20442;-86
2023/11/10 08:28:50;;;;;;;6.35;3.75;;;7.30;99.90;;;;;;5064582;28;20041;-87
2023/11/10 08:31:18;;;;;;;8.02;3.70;;;7.50;99.90;;;;;;5066099;28;20070;-87
2023/11/10 08:33:45;;;;;;;10.55;3.90;;;7.30;99.90;;;;;;5071230;28;20057;-87
2023/11/10 08:36:11;;;;;;;8.35;3.88;;;7.40;99.90;;;;;;5070417;28;20531;-88
2023/11/10 08:38:38;;;;;;;7.38;4.07;;;7.50;99.90;;;;;;5087209;28;20050;-88
2023/11/10 08:41:04;;;;;;;7.30;3.60;;;7.80;99.90;;;;;;5086272;28;20489;-89
2023/11/10 08:43:32;;;;;;;8.50;3.75;;;7.40;99.90;;;;;;5074415;28;20045;-88
2023/11/10 08:45:59;;;;;;;6.30;3.30;;;7.50;99.90;;;;;;5065760;28;20044;-89
2023/11/10 08:48:26;;;;;;;6.07;3.40;;;7.50;99.90;;;;;;5063851;28;20049;-88
2023/11/10 08:50:54;;;;;;;10.15;3.50;;;7.50;99.90;;;;;;5074127;28;20033;-89
2023/11/10 08:53:21;;;;;;;8.35;3.85;;;7.60;99.90;;;;;;5062939;28;20047;-88
2023/11/10 08:55:47;;;;;;;8.88;3.92;;;7.70;99.90;;;;;;5088984;28;20469;-89
2023/11/10 08:58:14;;;;;;;8.57;3.60;;;7.70;99.90;;;;;;5082012;28;20042;-89
2023/11/10 09:00:40;;;;;;;6.63;3.80;;;7.80;99.90;;;;;;5111825;28;20040;-89
2023/11/10 09:03:08;;;;;;;13.15;3.85;;;7.90;99.90;;;;;;5073407;28;20497;-88
2023/11/10 09:05:35;;;;;;;11.98;3.78;;;8.20;99.90;;;;;;5067012;28;20096;-91
2023/11/10 09:08:03;;;;;;;11.07;4.65;;;8.30;99.90;;;;;;5079232;28;20037;-88
2023/11/10 09:10:30;;;;;;;8.80;3.70;;;8.10;99.90;;;;;;5076242;28;20120;-89
2023/11/10 09:12:57;;;;;;;8.27;3.80;;;8.30;99.90;;;;;;5072667;28;20465;-89
2023/11/10 09:15:24;;;;;;;12.63;3.90;;;8.30;99.90;;;;;;5065533;28;20052;-87
2023/11/10 09:17:50;;;;;;;13.02;3.92;;;8.30;99.90;;;;;;5073671;28;20091;-87
2023/11/10 09:20:17;;;;;;;9.57;4.18;;;9.20;99.90;;;;;;5073746;28;20486;-88
2023/11/10 09:22:44;;;;;;;7.13;3.20;;;8.30;99.90;;;;;;5073634;28;20081;-88
2023/11/10 09:25:15;;;;;;;9.45;3.42;;;8.70;99.90;;;;;;5073474;28;20603;-87
2023/11/10 09:27:43;;;;;;;6.40;3.40;;;8.50;99.90;;;;;;5073544;28;20044;-87
2023/11/10 09:30:11;;;;;;;5.55;2.97;;;8.30;99.90;;;;;;5111421;28;20037;-88
2023/11/10 09:32:37;;;;;;;7.68;3.22;;;8.30;99.90;;;;;;5087666;28;20378;-89
2023/11/10 09:35:07;;;;;;;9.07;3.10;;;8.30;99.90;;;;;;5073829;28;20037;-89
2023/11/10 09:37:34;;;;;;;8.23;2.95;;;8.40;99.90;;;;;;5090184;28;20075;-87
2023/11/10 09:40:01;;;;;;;9.48;3.97;;;8.50;99.90;;;;;;5060858;28;20072;-88
2023/11/10 09:42:28;;;;;;;8.63;3.53;;;8.50;99.90;;;;;;5061540;28;20040;-89
2023/11/10 09:44:56;;;;;;;5.20;2.80;;;8.50;99.90;;;;;;5066393;28;20072;-87
2023/11/10 09:47:26;;;;;;;7.88;3.15;;;8.80;99.90;;;;;;5069503;28;20120;-88
2023/11/10 09:49:53;;;;;;;6.20;2.60;;;8.60;99.90;;;;;;5108466;28;20465;-89
2023/11/10 09:52:21;;;;;;;7.80;2.75;;;8.70;99.90;;;;;;5073001;28;20477;-86
2023/11/10 09:54:51;;;;;;;9.15;2.78;;;8.70;99.90;;;;;;5083105;28;20044;-87
2023/11/10 09:57:18;;;;;;;9.98;2.65;;;8.70;99.90;;;;;;5059341;28;20055;-87
2023/11/10 09:59:45;;;;;;;8.07;2.80;;;8.80;99.90;;;;;;5105390;28;20124;-84
2023/11/10 10:02:15;;;;;;;6.63;2.63;;;8.50;99.90;;;;;;5070084;28;20466;-84
2023/11/10 10:04:42;;;;;;;9.75;2.55;;;8.80;99.90;;;;;;5062998;28;20054;-84
2023/11/10 10:07:11;;;;;;;5.40;2.25;;;8.90;99.90;;;;;;5081508;28;20045;-83
2023/11/10 10:09:41;;;;;;;4.68;2.13;;;9.40;99.90;;;;;;5075135;28;20034;-84
2023/11/10 10:12:08;;;;;;;8.52;2.00;;;8.80;99.90;;;;;;5084088;28;20390;-83
2023/11/10 10:14:35;;;;;;;5.35;2.33;;;8.80;99.90;;;;;;5105453;28;20088;-83
2023/11/10 10:17:03;;;;;;;8.50;2.30;;;9.10;99.90;;;;;;5067071;28;20096;-84
2023/11/10 10:19:29;;;;;;;5.75;2.00;;;8.90;99.90;;;;;;5071254;28;20041;-84
2023/11/10 10:21:59;;;;;;;6.68;2.17;;;9.60;99.90;;;;;;5068184;28;20156;-84
2023/11/10 10:24:28;;;;;;;5.50;2.22;;;9.10;99.90;;;;;;5070336;28;20094;-84
2023/11/10 10:26:56;;;;;;;6.50;1.88;;;8.90;99.90;;;;;;5059324;28;20124;-85
2023/11/10 10:29:23;;;;;;;6.30;1.77;;;8.90;99.90;;;;;;5087189;28;20044;-84
2023/11/10 10:31:50;;;;;;;5.65;1.95;;;8.90;99.90;;;;;;5061880;28;20124;-84
2023/11/10 10:34:16;;;;;;;4.72;1.80;;;8.90;99.90;;;;;;5071212;28;20040;-84
2023/11/10 10:36:44;;;;;;;4.18;1.70;;;8.90;99.90;;;;;;5071528;28;20041;-83
2023/11/10 10:39:16;;;;;;;7.03;1.80;;;9.00;99.90;;;;;;5054967;28;20083;-84
2023/11/10 10:41:43;;;;;;;4.75;1.50;;;9.10;99.90;;;;;;5070844;28;20090;-84
2023/11/10 10:44:09;;;;;;;4.18;1.55;;;9.00;99.90;;;;;;5071309;28;20489;-83
2023/11/10 10:46:37;;;;;;;4.43;1.55;;;8.90;99.90;;;;;;5103758;28;20462;-84
2023/11/10 10:49:06;;;;;;;5.95;1.83;;;9.00;99.90;;;;;;5071132;28;20490;-84
2023/11/10 10:51:36;;;;;;;4.28;1.60;;;9.40;99.90;;;;;;5067372;28;20124;-85
2023/11/10 10:54:08;;;;;;;9.00;1.80;;;10.00;99.90;;;;;;5063197;28;20045;-83
2023/11/10 10:56:37;;;;;;;5.80;1.80;;;9.00;99.90;;;;;;5061931;28;20433;-84
2023/11/10 10:59:04;;;;;;;3.45;1.50;;;8.90;99.90;;;;;;5067456;28;20034;-83
2023/11/10 11:01:34;;;;;;;7.45;1.85;;;9.60;99.90;;;;;;5064887;28;20402;-84
2023/11/10 11:04:22;;;;;;;7.43;1.88;;;8.90;99.90;;;;;;5076373;28;20060;-83
2023/11/10 11:07:33;;;;;;;5.25;1.58;;;8.80;99.90;;;;;;5067116;28;20080;-83
2023/11/10 11:10:33;;;;;;;4.40;1.42;;;8.90;99.90;;;;;;5090879;28;20128;-84
2023/11/10 11:13:22;;;;;;;5.93;1.50;;;8.80;99.90;;;;;;5028414;28;20052;-84
2023/11/10 11:16:28;;;;;;;6.95;1.77;;;8.90;99.90;;;;;;5107841;28;20064;-84
2023/11/10 11:19:19;;;;;;;4.55;1.90;;;8.90;99.90;;;;;;5095930;28;20051;-84
2023/11/10 11:21:49;;;;;;;5.65;1.50;;;8.90;99.90;;;;;;5100165;28;20041;-84
2023/11/10 11:24:21;;;;;;;7.00;1.70;;;9.10;99.90;;;;;;5079743;28;20452;-84
2023/11/10 11:27:02;;;;;;;8.88;1.95;;;8.90;99.90;;;;;;5060747;28;20045;-84
2023/11/10 11:29:36;;;;;;;5.38;1.60;;;8.80;99.90;;;;;;5102489;28;20028;-84
2023/11/10 11:32:08;;;;;;;5.80;2.03;;;8.70;99.90;;;;;;5114749;28;20033;-84
2023/11/10 11:34:35;;;;;;;7.68;1.60;;;8.70;99.90;;;;;;5063469;28;20279;-83
2023/11/10 11:37:06;;;;;;;5.18;1.50;;;8.80;99.90;;;;;;5065138;28;20033;-84
2023/11/10 11:39:33;;;;;;;7.22;1.55;;;8.80;99.90;;;;;;5051547;28;20486;-84
2023/11/10 11:42:05;;;;;;;4.75;1.80;;;8.70;99.90;;;;;;5060665;28;20469;-84
2023/11/10 11:44:34;;;;;;;4.57;1.83;;;8.80;99.90;;;;;;5065939;28;20045;-84
2023/11/10 11:47:09;;;;;;;5.00;1.67;;;8.80;99.90;;;;;;5060377;28;20041;-84
2023/11/10 11:49:40;;;;;;;5.13;1.80;;;8.90;99.90;;;;;;5065669;28;20041;-84
2023/11/10 11:52:09;;;;;;;8.00;1.85;;;8.80;99.90;;;;;;5075018;28;20041;-83
2023/11/10 11:54:35;;;;;;;6.70;2.40;;;8.80;99.90;;;;;;5103197;28;20481;-84
2023/11/10 11:57:03;;;;;;;5.57;1.55;;;8.80;99.90;;;;;;5115364;28;20037;-84
2023/11/10 11:59:30;;;;;;;3.95;1.40;;;8.80;99.90;;;;;;5063927;28;20045;-84
2023/11/10 12:01:56;;;;;;;3.65;1.48;;;8.80;99.90;;;;;;5074137;28;20041;-83
2023/11/10 12:04:24;;;;;;;4.28;1.70;;;8.80;99.90;;;;;;5088612;28;20052;-84
2023/11/10 12:06:52;;;;;;;4.30;1.70;;;9.00;99.90;;;;;;5058791;28;20136;-84
2023/11/10 12:09:18;;;;;;;4.25;1.50;;;8.80;99.90;;;;;;5067999;28;20083;-84
2023/11/10 12:11:47;;;;;;;5.70;1.60;;;9.30;99.90;;;;;;5065872;28;20041;-84
2023/11/10 12:14:15;;;;;;;4.65;1.60;;;8.60;99.90;;;;;;5067791;28;20078;-85
2023/11/10 12:16:43;;;;;;;7.90;1.90;;;8.80;99.90;;;;;;5069484;28;20095;-84
2023/11/10 12:19:10;;;;;;;6.22;1.67;;;8.70;99.90;;;;;;5064271;28;20041;-85
2023/11/10 12:21:38;;;;;;;4.60;1.50;;;9.40;99.90;;;;;;5045736;28;20420;-84
2023/11/10 12:24:07;;;;;;;4.15;1.40;;;9.20;99.90;;;;;;5085340;28;20086;-84
2023/11/10 12:26:37;;;;;;;5.63;1.80;;;8.70;99.90;;;;;;5058998;28;20115;-85
2023/11/10 12:29:06;;;;;;;6.30;1.52;;;8.70;99.90;;;;;;5102660;28;20092;-84
2023/11/10 12:31:33;;;;;;;6.30;1.60;;;8.80;99.90;;;;;;5069378;28;20053;-84
2023/11/10 12:34:06;;;;;;;7.78;1.73;;;8.80;99.90;;;;;;5060736;28;20125;-85
2023/11/10 12:36:35;;;;;;;7.43;2.10;;;8.80;99.90;;;;;;5048655;28;20409;-84
2023/11/10 12:39:09;;;;;;;7.93;1.70;;;8.70;99.90;;;;;;5075728;28;20038;-85
2023/11/10 12:41:37;;;;;;;5.03;1.65;;;8.70;99.90;;;;;;5083879;28;20091;-84
2023/11/10 12:44:07;;;;;;;7.60;1.88;;;8.80;99.90;;;;;;5069314;28;20045;-84
2023/11/10 12:46:35;;;;;;;6.78;1.70;;;8.30;99.90;;;;;;5065944;28;20037;-85
2023/11/10 12:49:03;;;;;;;5.93;1.85;;;8.70;99.90;;;;;;5091125;28;20102;-84
2023/11/10 12:51:30;;;;;;;7.38;2.55;;;8.90;99.90;;;;;;5066598;28;20045;-85
2023/11/10 12:54:06;;;;;;;7.70;2.00;;;8.60;99.90;;;;;;5101469;28;20040;-84
2023/11/10 12:56:33;;;;;;;5.93;1.83;;;8.50;99.90;;;;;;5064057;28;20049;-83
2023/11/10 12:59:04;;;;;;;6.85;2.28;;;8.50;99.90;;;;;;5049248;28;20123;-84